sensor_id;sensor_type;location;lat;lon;timestamp;temperature;humidity
14775;DHT22;7479;47.042;15.160;2023-01-30T09:19:07;-0.60;99.90
14775;DHT22;7479;47.042;15.160;2023-01-30T09:24:01;-0.50;99.90
14775;DHT22;7479;47.042;15.160;2023-01-30T09:28:55;-0.30;99.90
14775;DHT22;7479;47.042;15.160;2023-01-30T09:33:48;-0.10;99.90
14775;DHT22;7479;47.042;15.160;2023-01-30T09:38:51;0.20;99.90
14775;DHT22;7479;47.042;15.160;2023-01-30T09:44:07;0.50;99.90
14775;DHT22;7479;47.042;15.160;2023-01-30T09:49:08;0.70;99.90
14775;DHT22;7479;47.042;15.160;2023-01-30T09:54:29;0.90;99.90
14775;DHT22;7479;47.042;15.160;2023-01-30T09:59:26;1.20;99.90
14775;DHT22;7479;47.042;15.160;2023-01-30T10:04:26;1.20;99.90
14775;DHT22;7479;47.042;15.160;2023-01-30T10:09:31;1.40;99.90
14775;DHT22;7479;47.042;15.160;2023-01-30T10:14:38;1.50;99.90
14775;DHT22;7479;47.042;15.160;2023-01-30T10:19:57;1.70;99.90
14775;DHT22;7479;47.042;15.160;2023-01-30T10:25:01;1.80;99.90
14775;DHT22;7479;47.042;15.160;2023-01-30T10:29:59;1.80;99.90
14775;DHT22;7479;47.042;15.160;2023-01-30T10:34:56;1.90;99.90
14775;DHT22;7479;47.042;15.160;2023-01-30T10:39:55;2.00;99.90
14775;DHT22;7479;47.042;15.160;2023-01-30T10:44:53;2.30;99.90
14775;DHT22;7479;47.042;15.160;2023-01-30T10:49:51;2.50;99.90
14775;DHT22;7479;47.042;15.160;2023-01-30T10:54:51;2.70;99.90
14775;DHT22;7479;47.042;15.160;2023-01-30T10:59:54;3.00;99.90
14775;DHT22;7479;47.042;15.160;2023-01-30T11:04:56;3.60;99.90
14775;DHT22;7479;47.042;15.160;2023-01-30T11:09:51;4.10;99.90
14775;DHT22;7479;47.042;15.160;2023-01-30T11:14:55;4.50;99.90
14775;DHT22;7479;47.042;15.160;2023-01-30T11:19:54;4.90;99.90
14775;DHT22;7479;47.042;15.160;2023-01-30T11:24:48;5.40;99.90
14775;DHT22;7479;47.042;15.160;2023-01-30T11:30:02;5.90;99.90
14775;DHT22;7479;47.042;15.160;2023-01-30T11:35:22;6.40;99.90
14775;DHT22;7479;47.042;15.160;2023-01-30T11:40:23;7.00;99.90
14775;DHT22;7479;47.042;15.160;2023-01-30T11:45:21;7.50;99.90
14775;DHT22;7479;47.042;15.160;2023-01-30T11:50:18;8.00;99.90
14775;DHT22;7479;47.042;15.160;2023-01-30T11:55:23;8.40;99.90
14775;DHT22;7479;47.042;15.160;2023-01-30T12:00:22;8.90;99.90
14775;DHT22;7479;47.042;15.160;2023-01-30T12:05:23;9.00;98.60
14775;DHT22;7479;47.042;15.160;2023-01-30T12:10:26;9.20;98.80
14775;DHT22;7479;47.042;15.160;2023-01-30T12:15:25;9.60;97.20
14775;DHT22;7479;47.042;15.160;2023-01-30T12:20:28;10.00;96.90
14775;DHT22;7479;47.042;15.160;2023-01-30T12:25:25;10.60;96.70
14775;DHT22;7479;47.042;15.160;2023-01-30T12:30:25;11.00;96.80
14775;DHT22;7479;47.042;15.160;2023-01-30T12:35:29;11.30;95.20
14775;DHT22;7479;47.042;15.160;2023-01-30T12:40:37;11.50;94.50
14775;DHT22;7479;47.042;15.160;2023-01-30T12:45:44;11.70;93.40
14775;DHT22;7479;47.042;15.160;2023-01-30T12:50:52;11.70;92.50
14775;DHT22;7479;47.042;15.160;2023-01-30T12:55:57;11.70;90.60
14775;DHT22;7479;47.042;15.160;2023-01-30T13:01:10;11.70;90.60
14775;DHT22;7479;47.042;15.160;2023-01-30T13:06:24;11.90;90.30
14775;DHT22;7479;47.042;15.160;2023-01-30T13:11:41;11.90;92.10
14775;DHT22;7479;47.042;15.160;2023-01-30T13:16:47;12.30;91.70
14775;DHT22;7479;47.042;15.160;2023-01-30T13:21:47;12.40;92.50
14775;DHT22;7479;47.042;15.160;2023-01-30T13:26:45;12.60;92.00
14775;DHT22;7479;47.042;15.160;2023-01-30T13:31:49;12.90;90.50
14775;DHT22;7479;47.042;15.160;2023-01-30T13:36:48;13.60;91.30
14775;DHT22;7479;47.042;15.160;2023-01-30T13:41:52;14.30;89.10
14775;DHT22;7479;47.042;15.160;2023-01-30T13:47:14;14.60;89.70
14775;DHT22;7479;47.042;15.160;2023-01-30T13:52:19;15.00;88.10
14775;DHT22;7479;47.042;15.160;2023-01-30T13:57:23;14.90;89.10
14775;DHT22;7479;47.042;15.160;2023-01-30T14:02:22;15.30;86.30
14775;DHT22;7479;47.042;15.160;2023-01-30T14:07:22;15.80;84.80
14775;DHT22;7479;47.042;15.160;2023-01-30T14:12:19;15.10;85.00
14775;DHT22;7479;47.042;15.160;2023-01-30T14:17:15;15.10;85.00
14775;DHT22;7479;47.042;15.160;2023-01-30T14:22:23;15.40;83.90
14775;DHT22;7479;47.042;15.160;2023-01-30T14:27:26;15.30;83.10
14775;DHT22;7479;47.042;15.160;2023-01-30T14:32:51;13.00;86.70
14775;DHT22;7479;47.042;15.160;2023-01-30T14:38:03;10.70;90.30
14775;DHT22;7479;47.042;15.160;2023-01-30T14:48:38;8.60;96.30
14775;DHT22;7479;47.042;15.160;2023-01-30T14:53:50;8.10;97.60
14775;DHT22;7479;47.042;15.160;2023-01-30T14:58:52;7.70;98.60
14775;DHT22;7479;47.042;15.160;2023-01-30T15:03:48;7.50;99.10
14775;DHT22;7479;47.042;15.160;2023-01-30T15:08:46;7.30;99.00
14775;DHT22;7479;47.042;15.160;2023-01-30T15:14:03;7.10;98.90
14775;DHT22;7479;47.042;15.160;2023-01-30T15:19:17;6.90;98.80
14775;DHT22;7479;47.042;15.160;2023-01-30T15:30:01;6.30;99.90
14775;DHT22;7479;47.042;15.160;2023-01-30T15:34:58;6.10;99.90
14775;DHT22;7479;47.042;15.160;2023-01-30T15:40:16;5.90;99.90
14775;DHT22;7479;47.042;15.160;2023-01-30T15:45:12;5.70;99.90
14775;DHT22;7479;47.042;15.160;2023-01-30T15:50:10;5.50;99.90
14775;DHT22;7479;47.042;15.160;2023-01-30T15:55:05;5.40;99.90
14775;DHT22;7479;47.042;15.160;2023-01-30T16:00:03;5.20;99.90
14775;DHT22;7479;47.042;15.160;2023-01-30T16:05:05;4.90;99.90
14775;DHT22;7479;47.042;15.160;2023-01-30T16:09:59;4.80;99.90
14775;DHT22;7479;47.042;15.160;2023-01-30T16:14:59;4.80;99.90
14775;DHT22;7479;47.042;15.160;2023-01-30T16:20:14;4.50;99.90
14775;DHT22;7479;47.042;15.160;2023-01-30T16:25:15;4.40;99.90
14775;DHT22;7479;47.042;15.160;2023-01-30T16:30:17;4.30;99.90
14775;DHT22;7479;47.042;15.160;2023-01-30T16:35:31;4.20;99.90
14775;DHT22;7479;47.042;15.160;2023-01-30T16:40:26;4.10;99.90
14775;DHT22;7479;47.042;15.160;2023-01-30T16:51:12;3.80;99.90
14775;DHT22;7479;47.042;15.160;2023-01-30T16:56:09;3.60;99.90
14775;DHT22;7479;47.042;15.160;2023-01-30T17:01:08;3.40;99.90
14775;DHT22;7479;47.042;15.160;2023-01-30T17:06:06;3.20;99.90
14775;DHT22;7479;47.042;15.160;2023-01-30T17:11:04;3.10;99.90
14775;DHT22;7479;47.042;15.160;2023-01-30T17:16:16;3.00;99.90
14775;DHT22;7479;47.042;15.160;2023-01-30T17:21:14;2.80;99.90
14775;DHT22;7479;47.042;15.160;2023-01-30T17:26:11;2.60;99.90
14775;DHT22;7479;47.042;15.160;2023-01-30T17:31:05;2.40;99.90
14775;DHT22;7479;47.042;15.160;2023-01-30T17:36:01;2.50;99.90
14775;DHT22;7479;47.042;15.160;2023-01-30T17:40:57;2.40;99.90
14775;DHT22;7479;47.042;15.160;2023-01-30T17:45:53;2.30;99.90
14775;DHT22;7479;47.042;15.160;2023-01-30T17:50:48;2.30;99.90
14775;DHT22;7479;47.042;15.160;2023-01-30T17:55:42;2.10;99.90
14775;DHT22;7479;47.042;15.160;2023-01-30T18:00:38;1.90;99.90
14775;DHT22;7479;47.042;15.160;2023-01-30T18:05:31;1.80;99.90
14775;DHT22;7479;47.042;15.160;2023-01-30T18:10:26;1.60;99.90
14775;DHT22;7479;47.042;15.160;2023-01-30T18:15:20;1.50;99.90
14775;DHT22;7479;47.042;15.160;2023-01-30T18:20:17;1.40;99.90
14775;DHT22;7479;47.042;15.160;2023-01-30T18:25:15;1.40;99.90
14775;DHT22;7479;47.042;15.160;2023-01-30T18:30:10;1.50;99.90
14775;DHT22;7479;47.042;15.160;2023-01-30T18:35:09;1.50;99.90
14775;DHT22;7479;47.042;15.160;2023-01-30T18:40:06;2.70;99.90
14775;DHT22;7479;47.042;15.160;2023-01-30T18:45:02;4.20;99.90
14775;DHT22;7479;47.042;15.160;2023-01-30T18:49:56;4.50;99.90
14775;DHT22;7479;47.042;15.160;2023-01-30T18:54:51;4.40;99.90
14775;DHT22;7479;47.042;15.160;2023-01-30T18:59:48;4.40;99.90
14775;DHT22;7479;47.042;15.160;2023-01-30T19:04:41;4.50;99.90
14775;DHT22;7479;47.042;15.160;2023-01-30T19:09:35;4.60;99.90
14775;DHT22;7479;47.042;15.160;2023-01-30T19:14:28;4.40;99.90
14775;DHT22;7479;47.042;15.160;2023-01-30T19:19:23;4.40;99.90
14775;DHT22;7479;47.042;15.160;2023-01-30T19:24:18;4.40;99.90
14775;DHT22;7479;47.042;15.160;2023-01-30T19:29:12;4.60;99.90
14775;DHT22;7479;47.042;15.160;2023-01-30T19:34:06;4.60;99.90
14775;DHT22;7479;47.042;15.160;2023-01-30T19:39:01;4.50;99.90
14775;DHT22;7479;47.042;15.160;2023-01-30T19:43:56;4.30;99.90
14775;DHT22;7479;47.042;15.160;2023-01-30T19:48:50;4.10;99.90
14775;DHT22;7479;47.042;15.160;2023-01-30T19:53:45;3.90;99.90
14775;DHT22;7479;47.042;15.160;2023-01-30T19:58:40;3.60;99.90
14775;DHT22;7479;47.042;15.160;2023-01-30T20:03:35;3.50;99.90
14775;DHT22;7479;47.042;15.160;2023-01-30T20:08:39;3.40;99.90
14775;DHT22;7479;47.042;15.160;2023-01-30T20:13:46;3.40;99.90
14775;DHT22;7479;47.042;15.160;2023-01-30T20:18:40;3.50;99.90
14775;DHT22;7479;47.042;15.160;2023-01-30T20:23:34;3.60;99.90
14775;DHT22;7479;47.042;15.160;2023-01-30T20:28:28;4.00;99.90
14775;DHT22;7479;47.042;15.160;2023-01-30T20:33:23;4.10;99.90
14775;DHT22;7479;47.042;15.160;2023-01-30T20:38:20;4.20;99.90
14775;DHT22;7479;47.042;15.160;2023-01-30T20:43:13;4.10;99.90
14775;DHT22;7479;47.042;15.160;2023-01-30T20:48:09;4.00;99.90
14775;DHT22;7479;47.042;15.160;2023-01-30T20:53:04;4.00;99.90
14775;DHT22;7479;47.042;15.160;2023-01-30T20:58:00;3.90;99.90
14775;DHT22;7479;47.042;15.160;2023-01-30T21:02:55;3.90;99.90
14775;DHT22;7479;47.042;15.160;2023-01-30T21:07:49;3.80;99.90
14775;DHT22;7479;47.042;15.160;2023-01-30T21:12:44;3.70;99.90
14775;DHT22;7479;47.042;15.160;2023-01-30T21:17:38;3.70;99.90
